createdAt,value
2023-05-09T00:00:10.925Z,2.80
2023-05-09T00:02:39.716Z,2.88
2023-05-09T00:05:10.012Z,3.00
2023-05-09T00:07:37.388Z,2.95
2023-05-09T00:10:05.231Z,3.42
2023-05-09T00:12:32.580Z,2.63
2023-05-09T00:15:00.035Z,2.47
2023-05-09T00:17:28.593Z,3.08
2023-05-09T00:19:55.961Z,2.70
2023-05-09T00:22:23.420Z,2.67
2023-05-09T00:24:51.090Z,2.58
2023-05-09T00:27:18.425Z,2.70
2023-05-09T00:29:45.961Z,2.78
2023-05-09T00:32:13.471Z,2.83
2023-05-09T00:34:41.085Z,2.58
2023-05-09T00:37:08.434Z,3.15
2023-05-09T00:39:35.967Z,2.97
2023-05-09T00:42:03.561Z,3.20
2023-05-09T00:44:31.054Z,2.22
2023-05-09T00:46:58.957Z,3.70
2023-05-09T00:49:29.278Z,2.88
2023-05-09T00:51:57.107Z,2.95
2023-05-09T00:54:24.478Z,2.72
2023-05-09T00:56:52.284Z,2.83
2023-05-09T00:59:19.601Z,2.50
2023-05-09T01:01:47.071Z,3.03
2023-05-09T01:04:15.303Z,3.28
2023-05-09T01:06:58.276Z,2.90
2023-05-09T01:09:43.250Z,3.22
2023-05-09T01:12:45.797Z,2.90
2023-05-09T01:15:35.555Z,2.90
2023-05-09T01:18:09.013Z,3.13
2023-05-09T01:20:39.515Z,2.90
2023-05-09T01:23:49.951Z,3.00
2023-05-09T01:26:30.729Z,2.92
2023-05-09T01:29:25.711Z,2.80
2023-05-09T01:31:55.635Z,2.90
2023-05-09T01:34:26.466Z,2.72
2023-05-09T01:36:59.308Z,3.00
2023-05-09T01:39:29.648Z,3.05
2023-05-09T01:42:00.626Z,3.17
2023-05-09T01:44:34.023Z,3.33
2023-05-09T01:47:02.915Z,3.10
2023-05-09T01:49:33.246Z,3.00
2023-05-09T01:52:04.345Z,3.28
2023-05-09T01:54:34.137Z,2.63
2023-05-09T01:57:02.723Z,2.92
2023-05-09T01:59:31.895Z,3.63
2023-05-09T02:01:59.507Z,3.00
2023-05-09T02:04:28.384Z,3.33
2023-05-09T02:06:57.492Z,2.75
2023-05-09T02:09:27.144Z,3.13
2023-05-09T02:11:55.232Z,3.08
2023-05-09T02:14:22.578Z,3.53
2023-05-09T02:16:50.395Z,3.47
2023-05-09T02:19:17.749Z,3.03
2023-05-09T02:21:45.289Z,3.20
2023-05-09T02:24:12.740Z,2.60
2023-05-09T02:26:41.352Z,3.13
2023-05-09T02:29:10.756Z,3.30
2023-05-09T02:31:42.353Z,3.42
2023-05-09T02:34:10.886Z,3.50
2023-05-09T02:36:39.042Z,3.17
2023-05-09T02:39:07.628Z,3.05
2023-05-09T02:41:35.110Z,3.10
2023-05-09T02:44:03.343Z,3.35
2023-05-09T02:46:31.129Z,3.50
2023-05-09T02:48:58.864Z,3.55
2023-05-09T02:51:26.890Z,3.20
2023-05-09T02:53:54.421Z,3.63
2023-05-09T02:56:22.187Z,3.17
2023-05-09T02:58:51.426Z,3.10
2023-05-09T03:01:19.194Z,3.22
2023-05-09T03:03:46.731Z,3.22
2023-05-09T03:06:14.524Z,3.10
2023-05-09T03:08:41.922Z,2.90
2023-05-09T03:11:09.782Z,2.90
2023-05-09T03:13:37.402Z,3.38
2023-05-09T03:16:05.457Z,2.80
2023-05-09T03:18:32.873Z,2.95
2023-05-09T03:21:00.894Z,3.30
2023-05-09T03:23:29.509Z,3.10
2023-05-09T03:25:57.067Z,2.75
2023-05-09T03:28:24.442Z,3.50
2023-05-09T03:30:52.376Z,2.75
2023-05-09T03:33:23.046Z,2.72
2023-05-09T03:35:50.619Z,2.97
2023-05-09T03:38:18.069Z,2.42
2023-05-09T03:40:45.403Z,2.70
2023-05-09T03:43:13.157Z,2.90
2023-05-09T03:45:40.497Z,2.83
2023-05-09T03:48:11.242Z,3.05
2023-05-09T03:50:43.957Z,2.75
2023-05-09T03:53:13.067Z,3.05
2023-05-09T03:55:41.020Z,2.90
2023-05-09T03:58:09.333Z,3.00
2023-05-09T04:00:40.150Z,2.50
2023-05-09T04:03:13.549Z,2.45
2023-05-09T04:05:45.706Z,3.10
2023-05-09T04:08:20.961Z,3.15
2023-05-09T04:10:49.092Z,2.90
2023-05-09T04:13:16.631Z,2.92
2023-05-09T04:15:44.310Z,2.50
2023-05-09T04:18:12.492Z,2.40
2023-05-09T04:20:39.813Z,3.42
2023-05-09T04:23:07.125Z,2.67
2023-05-09T04:25:35.425Z,2.35
2023-05-09T04:28:03.894Z,2.75
2023-05-09T04:30:31.542Z,2.50
2023-05-09T04:32:59.471Z,2.40
2023-05-09T04:35:28.968Z,2.70
2023-05-09T04:37:56.416Z,2.30
2023-05-09T04:40:26.643Z,2.75
2023-05-09T04:42:59.037Z,3.05
2023-05-09T04:45:29.173Z,2.70
2023-05-09T04:47:58.945Z,2.35
2023-05-09T04:50:26.507Z,2.47
2023-05-09T04:52:53.891Z,2.38
2023-05-09T04:55:21.303Z,2.50
2023-05-09T04:57:50.340Z,2.10
2023-05-09T05:00:18.595Z,2.78
2023-05-09T05:02:49.402Z,2.42
2023-05-09T05:05:16.778Z,2.75
2023-05-09T05:07:44.706Z,2.60
2023-05-09T05:10:16.826Z,2.42
2023-05-09T05:12:48.431Z,2.60
2023-05-09T05:15:17.604Z,2.78
2023-05-09T05:17:46.814Z,2.15
2023-05-09T05:20:15.610Z,2.40
2023-05-09T05:22:45.656Z,2.50
2023-05-09T05:25:13.680Z,3.17
2023-05-09T05:27:42.261Z,2.53
2023-05-09T05:30:12.490Z,2.80
2023-05-09T05:32:39.914Z,2.35
2023-05-09T05:35:09.728Z,2.60
2023-05-09T05:37:39.211Z,2.40
2023-05-09T05:40:07.486Z,2.60
2023-05-09T05:42:36.654Z,2.58
2023-05-09T05:45:04.597Z,2.53
2023-05-09T05:47:35.579Z,3.00
2023-05-09T05:50:06.848Z,2.80
2023-05-09T05:52:37.132Z,2.20
2023-05-09T05:55:04.975Z,2.30
2023-05-09T05:57:35.214Z,2.55
2023-05-09T06:00:05.725Z,2.88
2023-05-09T06:02:44.574Z,2.45
2023-05-09T06:05:18.452Z,2.88
2023-05-09T06:07:46.752Z,2.30
2023-05-09T06:10:15.946Z,2.40
2023-05-09T06:12:44.946Z,2.72
2023-05-09T06:15:13.170Z,2.70
2023-05-09T06:17:44.422Z,2.80
2023-05-09T06:20:11.872Z,2.72
2023-05-09T06:22:39.348Z,2.83
2023-05-09T06:25:09.450Z,2.75
2023-05-09T06:27:37.979Z,2.63
2023-05-09T06:30:23.890Z,2.53
2023-05-09T06:32:52.622Z,2.67
2023-05-09T06:35:20.046Z,2.60
2023-05-09T06:37:48.866Z,2.58
2023-05-09T06:40:16.921Z,2.47
2023-05-09T06:42:44.742Z,2.55
2023-05-09T06:45:12.439Z,2.60
2023-05-09T06:47:40.053Z,2.40
2023-05-09T06:50:08.226Z,2.75
2023-05-09T06:52:35.929Z,2.85
2023-05-09T06:55:03.858Z,2.40
2023-05-09T06:57:31.581Z,2.13
2023-05-09T06:59:58.901Z,2.53
2023-05-09T07:02:26.359Z,2.60
2023-05-09T07:04:53.873Z,3.00
2023-05-09T07:07:22.102Z,2.40
2023-05-09T07:09:52.962Z,2.53
2023-05-09T07:12:22.781Z,2.33
2023-05-09T07:14:50.191Z,2.80
2023-05-09T07:17:23.656Z,2.63
2023-05-09T07:19:51.776Z,2.58
2023-05-09T07:22:19.458Z,2.30
2023-05-09T07:24:47.172Z,2.58
2023-05-09T07:27:14.722Z,2.45
2023-05-09T07:29:42.032Z,2.85
2023-05-09T07:32:09.579Z,2.10
2023-05-09T07:34:37.276Z,2.50
2023-05-09T07:37:04.668Z,2.65
2023-05-09T07:39:32.023Z,2.90
2023-05-09T07:41:59.469Z,2.35
2023-05-09T07:44:26.818Z,2.40
2023-05-09T07:46:55.500Z,2.50
2023-05-09T07:49:23.138Z,2.50
2023-05-09T07:51:50.491Z,2.60
2023-05-09T07:54:18.029Z,2.25
2023-05-09T07:56:45.460Z,2.38
2023-05-09T07:59:12.898Z,2.60
2023-05-09T08:01:40.387Z,2.47
2023-05-09T08:04:09.130Z,2.47
2023-05-09T08:06:38.012Z,2.10
2023-05-09T08:09:05.764Z,2.50
2023-05-09T08:11:36.413Z,1.88
2023-05-09T08:14:03.829Z,1.90
2023-05-09T08:16:31.487Z,2.10
2023-05-09T08:18:58.866Z,2.38
2023-05-09T08:21:26.584Z,2.33
2023-05-09T08:23:54.111Z,2.00
2023-05-09T08:26:22.639Z,2.30
2023-05-09T08:28:50.049Z,2.08
2023-05-09T08:31:17.461Z,1.90
2023-05-09T08:33:44.856Z,2.50
2023-05-09T08:36:12.309Z,2.10
2023-05-09T08:38:40.617Z,2.67
2023-05-09T08:41:08.021Z,2.20
2023-05-09T08:43:35.816Z,2.22
2023-05-09T08:46:08.330Z,2.22
2023-05-09T08:48:38.931Z,2.40
2023-05-09T08:51:07.372Z,2.00
2023-05-09T08:53:35.704Z,2.10
2023-05-09T08:56:06.758Z,1.90
2023-05-09T08:58:34.592Z,1.80
2023-05-09T09:01:06.791Z,2.10
2023-05-09T09:03:34.404Z,2.50
2023-05-09T09:06:02.011Z,1.92
2023-05-09T09:08:29.786Z,2.22
2023-05-09T09:10:57.464Z,2.00
2023-05-09T09:13:25.675Z,1.83
2023-05-09T09:15:54.565Z,1.80
2023-05-09T09:18:28.511Z,1.92
2023-05-09T09:21:12.371Z,1.83
2023-05-09T09:23:42.918Z,2.20
2023-05-09T09:26:10.648Z,2.30
2023-05-09T09:28:38.023Z,2.20
2023-05-09T09:31:20.981Z,1.90
2023-05-09T09:36:34.712Z,1.95
2023-05-09T09:39:06.796Z,1.88
2023-05-09T09:41:40.699Z,2.13
2023-05-09T09:44:16.987Z,1.98
2023-05-09T09:46:51.805Z,1.73
2023-05-09T09:49:25.112Z,2.30
2023-05-09T09:51:57.676Z,2.20
2023-05-09T09:54:28.607Z,2.40
2023-05-09T09:56:56.883Z,2.00
2023-05-09T09:59:26.077Z,2.45
2023-05-09T10:02:07.679Z,1.80
2023-05-09T10:04:37.019Z,2.33
2023-05-09T10:07:12.775Z,1.60
2023-05-09T10:09:43.725Z,2.20
2023-05-09T10:12:14.648Z,2.40
2023-05-09T10:14:44.506Z,2.00
2023-05-09T10:17:15.119Z,2.03
2023-05-09T10:19:52.336Z,2.20
2023-05-09T10:22:20.911Z,1.95
2023-05-09T10:24:49.294Z,2.38
2023-05-09T10:27:21.720Z,2.03
2023-05-09T10:30:10.434Z,1.88
2023-05-09T10:32:54.791Z,2.00
2023-05-09T10:35:27.882Z,1.98
2023-05-09T10:37:59.483Z,2.20
2023-05-09T10:40:31.124Z,1.80
2023-05-09T10:42:58.646Z,1.73
2023-05-09T10:45:26.868Z,1.70
2023-05-09T10:47:56.629Z,1.60
2023-05-09T10:50:24.700Z,1.80
2023-05-09T10:53:04.644Z,1.70
2023-05-09T10:55:52.924Z,2.00
2023-05-09T10:58:42.002Z,2.03
2023-05-09T11:01:10.702Z,1.77
2023-05-09T11:03:55.734Z,1.85
2023-05-09T11:09:38.250Z,1.55
2023-05-09T11:12:05.891Z,2.00
2023-05-09T11:14:44.396Z,1.55
2023-05-09T11:17:15.396Z,1.67
2023-05-09T11:19:45.890Z,1.70
2023-05-09T11:22:16.231Z,1.50
2023-05-09T11:25:00.474Z,1.48
2023-05-09T11:30:56.719Z,1.88
2023-05-09T11:34:09.536Z,1.83
2023-05-09T11:40:08.304Z,1.63
2023-05-09T11:42:47.745Z,1.50
2023-05-09T11:48:48.333Z,1.90
2023-05-09T11:51:24.624Z,1.80
2023-05-09T11:54:01.541Z,1.70
2023-05-09T11:56:31.222Z,1.70
2023-05-09T11:59:02.112Z,1.63
2023-05-09T12:01:30.551Z,1.55
2023-05-09T12:03:59.296Z,1.75
2023-05-09T12:06:28.192Z,1.90
2023-05-09T12:08:57.287Z,1.50
2023-05-09T12:11:26.126Z,1.92
2023-05-09T12:13:53.600Z,1.80
2023-05-09T12:16:22.007Z,1.80
2023-05-09T12:18:53.237Z,1.70
2023-05-09T12:21:28.621Z,1.77
2023-05-09T12:23:57.634Z,1.50
2023-05-09T12:26:48.152Z,1.55
2023-05-09T12:29:14.188Z,1.80
2023-05-09T12:31:42.686Z,1.60
2023-05-09T12:34:10.547Z,1.85
2023-05-09T12:36:37.985Z,1.60
2023-05-09T12:39:13.712Z,1.70
2023-05-09T12:42:00.363Z,1.55
2023-05-09T12:44:29.973Z,1.67
2023-05-09T12:47:00.413Z,1.50
2023-05-09T12:49:28.390Z,1.90
2023-05-09T12:51:58.014Z,1.42
2023-05-09T12:54:30.311Z,1.77
2023-05-09T12:56:58.896Z,1.73
2023-05-09T12:59:28.247Z,1.55
2023-05-09T13:01:59.316Z,1.80
2023-05-09T13:04:28.808Z,1.42
2023-05-09T13:06:58.673Z,1.40
2023-05-09T13:09:27.423Z,1.75
2023-05-09T13:11:54.745Z,1.63
2023-05-09T13:14:23.111Z,1.85
2023-05-09T13:16:50.631Z,1.55
2023-05-09T13:19:18.178Z,1.60
2023-05-09T13:21:45.777Z,1.90
2023-05-09T13:24:13.034Z,1.48
2023-05-09T13:26:40.639Z,1.55
2023-05-09T13:29:08.011Z,1.83
2023-05-09T13:31:35.487Z,1.70
2023-05-09T13:34:03.041Z,1.52
2023-05-09T13:36:31.634Z,1.88
2023-05-09T13:38:58.942Z,1.70
2023-05-09T13:41:26.431Z,1.40
2023-05-09T13:43:53.781Z,1.55
2023-05-09T13:46:21.175Z,1.80
2023-05-09T13:48:49.495Z,1.80
2023-05-09T13:51:17.224Z,1.90
2023-05-09T13:53:44.632Z,1.83
2023-05-09T13:56:12.841Z,1.40
2023-05-09T13:58:40.188Z,2.08
2023-05-09T14:01:07.945Z,1.55
2023-05-09T14:03:35.420Z,1.75
2023-05-09T14:06:03.360Z,1.60
2023-05-09T14:08:30.756Z,1.90
2023-05-09T14:10:58.093Z,1.90
2023-05-09T14:13:25.680Z,2.03
2023-05-09T14:15:53.169Z,1.75
2023-05-09T14:18:23.726Z,1.92
2023-05-09T14:20:54.142Z,2.25
2023-05-09T14:23:22.415Z,2.15
2023-05-09T14:25:50.148Z,2.20
2023-05-09T14:31:27.273Z,2.05
2023-05-09T14:33:55.321Z,2.10
2023-05-09T14:36:22.993Z,2.03
2023-05-09T14:38:50.310Z,2.10
2023-05-09T14:41:19.626Z,1.80
2023-05-09T14:43:48.701Z,2.38
2023-05-09T14:46:16.195Z,2.10
2023-05-09T14:48:43.573Z,1.70
2023-05-09T14:51:11.825Z,2.17
2023-05-09T14:53:41.686Z,1.90
2023-05-09T14:56:11.408Z,2.13
2023-05-09T14:58:53.721Z,1.98
2023-05-09T15:01:26.772Z,1.67
2023-05-09T15:03:54.303Z,1.92
2023-05-09T15:06:23.494Z,2.03
2023-05-09T15:08:52.224Z,2.00
2023-05-09T15:11:28.772Z,2.13
2023-05-09T15:13:58.246Z,1.95
2023-05-09T15:16:25.566Z,2.00
2023-05-09T15:18:57.238Z,2.10
2023-05-09T15:21:24.547Z,1.98
2023-05-09T15:23:52.057Z,2.00
2023-05-09T15:26:19.516Z,2.13
2023-05-09T15:29:13.893Z,1.88
2023-05-09T15:31:41.676Z,1.77
2023-05-09T15:34:10.326Z,1.83
2023-05-09T15:36:38.762Z,2.10
2023-05-09T15:39:06.302Z,2.08
2023-05-09T15:41:33.690Z,2.03
2023-05-09T15:44:00.985Z,1.67
2023-05-09T15:46:28.419Z,2.20
2023-05-09T15:48:56.696Z,1.98
2023-05-09T15:51:24.637Z,2.40
2023-05-09T15:53:51.991Z,1.75
2023-05-09T15:56:19.740Z,1.90
2023-05-09T15:58:47.759Z,1.83
2023-05-09T16:01:15.089Z,2.15
2023-05-09T16:03:43.147Z,2.63
2023-05-09T16:06:12.760Z,1.80
2023-05-09T16:08:40.274Z,2.20
2023-05-09T16:11:07.743Z,2.08
2023-05-09T16:13:36.084Z,2.08
2023-05-09T16:16:04.063Z,2.05
2023-05-09T16:18:31.513Z,2.33
2023-05-09T16:20:59.593Z,2.35
2023-05-09T16:23:27.451Z,2.60
2023-05-09T16:25:54.910Z,2.38
2023-05-09T16:28:27.762Z,2.05
2023-05-09T16:30:55.157Z,2.17
2023-05-09T16:33:23.142Z,5.15
2023-05-09T16:35:50.476Z,3.90
2023-05-09T16:38:18.811Z,3.67
2023-05-09T16:40:46.453Z,3.20
2023-05-09T16:43:16.320Z,2.65
2023-05-09T16:45:43.774Z,2.75
2023-05-09T16:48:11.124Z,3.05
2023-05-09T16:50:38.560Z,3.63
2023-05-09T16:53:06.277Z,2.55
2023-05-09T16:55:33.573Z,2.80
2023-05-09T16:58:00.892Z,2.35
2023-05-09T17:00:28.363Z,2.67
2023-05-09T17:03:00.288Z,2.47
2023-05-09T17:05:28.595Z,2.88
2023-05-09T17:07:57.792Z,2.55
2023-05-09T17:10:25.325Z,2.40
2023-05-09T17:12:53.567Z,2.53
2023-05-09T17:15:21.091Z,2.17
2023-05-09T17:17:48.745Z,2.45
2023-05-09T17:20:16.340Z,2.30
2023-05-09T17:22:44.289Z,2.30
2023-05-09T17:25:11.676Z,2.30
2023-05-09T17:27:41.442Z,2.35
2023-05-09T17:30:09.489Z,2.15
2023-05-09T17:32:37.180Z,2.50
2023-05-09T17:35:05.068Z,2.10
2023-05-09T17:37:32.494Z,1.70
2023-05-09T17:39:59.848Z,2.20
2023-05-09T17:42:27.200Z,1.90
2023-05-09T17:44:54.908Z,2.35
2023-05-09T17:47:22.257Z,2.47
2023-05-09T17:49:49.628Z,1.80
2023-05-09T17:52:16.936Z,1.88
2023-05-09T17:54:44.730Z,1.95
2023-05-09T17:57:12.282Z,2.33
2023-05-09T17:59:41.373Z,2.28
2023-05-09T18:02:08.867Z,1.98
2023-05-09T18:04:36.969Z,2.00
2023-05-09T18:07:04.825Z,1.80
2023-05-09T18:09:32.258Z,2.22
2023-05-09T18:11:59.569Z,2.22
2023-05-09T18:14:27.106Z,1.90
2023-05-09T18:16:54.415Z,1.90
2023-05-09T18:19:21.805Z,1.67
2023-05-09T18:21:49.318Z,1.73
2023-05-09T18:24:17.104Z,1.70
2023-05-09T18:26:44.521Z,1.67
2023-05-09T18:29:12.224Z,1.60
2023-05-09T18:31:41.376Z,1.95
2023-05-09T18:34:09.373Z,1.55
2023-05-09T18:36:36.910Z,1.92
2023-05-09T18:39:04.701Z,1.80
2023-05-09T18:41:33.848Z,2.13
2023-05-09T18:44:01.485Z,2.17
2023-05-09T18:46:31.572Z,2.13
2023-05-09T18:48:59.288Z,1.98
2023-05-09T18:51:27.289Z,2.28
2023-05-09T18:53:54.701Z,2.20
2023-05-09T18:56:22.534Z,1.80
2023-05-09T18:58:50.347Z,2.30
2023-05-09T19:01:19.020Z,2.30
2023-05-09T19:03:47.743Z,2.10
2023-05-09T19:06:16.390Z,2.00
2023-05-09T19:08:44.418Z,2.25
2023-05-09T19:11:11.991Z,2.13
2023-05-09T19:13:41.826Z,2.03
2023-05-09T19:16:10.977Z,2.08
2023-05-09T19:18:39.133Z,2.50
2023-05-09T19:21:08.531Z,2.28
2023-05-09T19:23:36.197Z,2.25
2023-05-09T19:26:06.411Z,2.53
2023-05-09T19:28:35.471Z,2.20
2023-05-09T19:31:03.190Z,2.25
2023-05-09T19:33:33.641Z,1.85
2023-05-09T19:36:03.413Z,2.05
2023-05-09T19:38:31.792Z,2.28
2023-05-09T19:40:59.598Z,1.80
2023-05-09T19:43:27.656Z,1.98
2023-05-09T19:45:55.527Z,2.60
2023-05-09T19:48:27.417Z,2.55
2023-05-09T19:51:00.860Z,2.33
2023-05-09T19:53:28.585Z,2.38
2023-05-09T19:55:56.120Z,2.80
2023-05-09T19:58:28.972Z,2.70
2023-05-09T20:00:56.775Z,2.10
2023-05-09T20:03:26.037Z,2.85
2023-05-09T20:05:54.409Z,2.38
2023-05-09T20:08:22.895Z,2.35
2023-05-09T20:10:50.542Z,2.25
2023-05-09T20:13:19.562Z,2.28
2023-05-09T20:15:48.032Z,2.38
2023-05-09T20:18:16.419Z,2.13
2023-05-09T20:20:49.900Z,2.38
2023-05-09T20:23:17.624Z,2.20
2023-05-09T20:25:45.165Z,2.33
2023-05-09T20:28:16.357Z,2.30
2023-05-09T20:30:43.974Z,2.33
2023-05-09T20:33:11.366Z,2.63
2023-05-09T20:35:45.272Z,2.45
2023-05-09T20:38:14.401Z,2.38
2023-05-09T20:40:49.951Z,2.17
2023-05-09T20:43:20.476Z,2.67
2023-05-09T20:45:58.613Z,2.45
2023-05-09T20:48:29.185Z,2.28
2023-05-09T20:50:56.550Z,2.15
2023-05-09T20:53:30.138Z,2.05
2023-05-09T20:56:02.141Z,3.25
2023-05-09T20:58:34.041Z,2.00
2023-05-09T21:01:01.576Z,2.00
2023-05-09T21:03:29.078Z,2.55
2023-05-09T21:05:57.899Z,2.60
2023-05-09T21:08:28.355Z,2.25
2023-05-09T21:10:55.919Z,2.10
2023-05-09T21:13:23.564Z,2.35
2023-05-09T21:15:51.139Z,2.58
2023-05-09T21:18:21.869Z,2.30
2023-05-09T21:20:49.310Z,2.28
2023-05-09T21:23:18.433Z,2.40
2023-05-09T21:25:45.724Z,3.08
2023-05-09T21:28:14.761Z,2.33
2023-05-09T21:30:42.092Z,2.30
2023-05-09T21:33:09.547Z,2.58
2023-05-09T21:35:36.916Z,2.78
2023-05-09T21:38:04.215Z,2.50
2023-05-09T21:40:31.596Z,2.17
2023-05-09T21:42:58.893Z,2.70
2023-05-09T21:45:26.323Z,2.33
2023-05-09T21:47:53.763Z,1.67
2023-05-09T21:50:21.360Z,2.30
2023-05-09T21:52:48.625Z,2.33
2023-05-09T21:55:16.260Z,2.10
2023-05-09T21:57:43.579Z,2.10
2023-05-09T22:00:15.160Z,2.30
2023-05-09T22:02:43.071Z,2.00
2023-05-09T22:05:11.772Z,2.15
2023-05-09T22:07:39.346Z,1.95
2023-05-09T22:10:08.347Z,2.25
2023-05-09T22:12:36.130Z,2.10
2023-05-09T22:15:07.006Z,2.22
2023-05-09T22:17:37.472Z,2.00
2023-05-09T22:20:05.852Z,1.88
2023-05-09T22:22:34.055Z,1.75
2023-05-09T22:25:01.367Z,2.35
2023-05-09T22:27:28.683Z,2.10
2023-05-09T22:29:56.175Z,2.00
2023-05-09T22:32:23.532Z,1.85
2023-05-09T22:34:55.393Z,2.30
2023-05-09T22:37:23.417Z,2.30
2023-05-09T22:39:51.102Z,2.00
2023-05-09T22:45:34.817Z,1.80
2023-05-09T22:48:34.409Z,2.17
2023-05-09T22:51:07.037Z,1.90
2023-05-09T22:53:57.138Z,1.92
2023-05-09T22:57:10.771Z,1.98
2023-05-09T22:59:40.994Z,2.13
2023-05-09T23:02:22.093Z,1.73
2023-05-09T23:04:55.748Z,1.77
2023-05-09T23:12:15.307Z,1.80
2023-05-09T23:14:42.749Z,1.80
2023-05-09T23:17:13.202Z,1.98
2023-05-09T23:19:43.968Z,1.80
2023-05-09T23:22:17.434Z,1.90
2023-05-09T23:24:44.912Z,1.75
2023-05-09T23:27:12.365Z,1.73
2023-05-09T23:29:39.780Z,1.98
2023-05-09T23:32:07.091Z,1.73
2023-05-09T23:34:42.101Z,1.60
2023-05-09T23:39:42.151Z,1.85
2023-05-09T23:42:09.593Z,1.88
2023-05-09T23:44:36.928Z,1.70
2023-05-09T23:47:04.429Z,1.73
2023-05-09T23:49:32.046Z,1.60
2023-05-09T23:51:59.532Z,1.98
2023-05-09T23:54:33.044Z,1.60
2023-05-09T23:57:04.058Z,1.95
2023-05-09T23:59:35.092Z,1.80
